Time;durP1;ratioP1;P1;durP2;ratioP2;P2;SDS_P1;SDS_P2;PMS_P1;PMS_P2;Temp;Humidity;BMP_temperature;BMP_pressure;BME280_temperature;BME280_humidity;BME280_pressure;Samples;Min_cycle;Max_cycle;Signal;HPM_P1;HPM_P2
2023/04/14 00:02:13;;;;;;;;;;;;;;;27.27;27.00;97196.19;5011504;28;19921;-83
2023/04/14 00:04:39;;;;;;;;;;;;;;;27.31;26.87;97196.78;5014004;28;20463;-83
2023/04/14 00:07:05;;;;;;;;;;;;;;;27.14;27.05;97203.28;5013033;28;19917;-83
2023/04/14 00:09:31;;;;;;;;;;;;;;;26.55;27.14;97191.53;5013878;28;19924;-83
2023/04/14 00:11:57;;;;;;;;;;;;;;;25.92;28.22;97188.72;5013823;28;19922;-82
2023/04/14 00:14:23;;;;;;;;;;;;;;;25.86;28.52;97182.94;5013692;28;19925;-83
2023/04/14 00:16:49;;;;;;;;;;;;;;;26.28;27.89;97183.13;5013760;28;19922;-83
2023/04/14 00:19:15;;;;;;;;;;;;;;;26.68;28.05;97189.31;5013654;28;19956;-83
2023/04/14 00:21:41;;;;;;;;;;;;;;;26.85;27.30;97184.13;5012735;28;20020;-82
2023/04/14 00:24:07;;;;;;;;;;;;;;;27.06;27.15;97185.94;5011198;28;19961;-82
2023/04/14 00:26:33;;;;;;;;;;;;;;;27.18;26.63;97181.34;5013045;28;19917;-83
2023/04/14 00:28:59;;;;;;;;;;;;;;;27.12;26.72;97178.38;5000705;28;19926;-82
2023/04/14 00:31:25;;;;;;;;;;;;;;;27.12;26.25;97172.75;5052484;28;19920;-83
2023/04/14 00:33:51;;;;;;;;;;;;;;;26.36;27.26;97175.94;5034676;28;19963;-82
2023/04/14 00:36:17;;;;;;;;;;;;;;;26.00;27.87;97181.53;5035213;28;20053;-83
2023/04/14 00:38:43;;;;;;;;;;;;;;;25.88;27.92;97176.88;5049615;28;19921;-83
2023/04/14 00:41:09;;;;;;;;;;;;;;;25.88;28.25;97174.06;5051911;28;19921;-83
2023/04/14 00:43:35;;;;;;;;;;;;;;;25.91;28.33;97173.09;5052732;28;19927;-83
2023/04/14 00:46:01;;;;;;;;;;;;;;;25.71;28.27;97167.94;5046036;28;19917;-83
2023/04/14 00:48:28;;;;;;;;;;;;;;;25.24;29.19;97164.69;5051894;28;20007;-83
2023/04/14 00:50:54;;;;;;;;;;;;;;;25.19;28.99;97160.47;5051816;28;19929;-83
2023/04/14 00:53:20;;;;;;;;;;;;;;;25.48;29.25;97159.31;5049736;28;19921;-83
2023/04/14 00:55:46;;;;;;;;;;;;;;;25.89;28.27;97141.84;5052368;28;19920;-82
2023/04/14 00:58:13;;;;;;;;;;;;;;;26.24;27.58;97160.00;5044706;28;19917;-83
2023/04/14 01:00:39;;;;;;;;;;;;;;;26.39;27.33;97160.13;5040885;28;19928;-82
2023/04/14 01:03:06;;;;;;;;;;;;;;;26.63;27.21;97158.19;5052977;28;19916;-82
2023/04/14 01:05:32;;;;;;;;;;;;;;;26.75;27.27;97160.06;5050289;28;20390;-82
2023/04/14 01:07:59;;;;;;;;;;;;;;;26.76;26.99;97155.22;5033092;28;19986;-83
2023/04/14 01:10:29;;;;;;;;;;;;;;;26.39;27.48;97155.28;5051528;28;19924;-83
2023/04/14 01:12:55;;;;;;;;;;;;;;;26.22;27.80;97148.44;5047800;28;19921;-82
2023/04/14 01:15:30;;;;;;;;;;;;;;;26.17;27.57;97151.09;5052226;28;19921;-83
2023/04/14 01:18:04;;;;;;;;;;;;;;;25.77;28.38;97146.38;5033245;28;20315;-82
2023/04/14 01:20:32;;;;;;;;;;;;;;;25.56;28.48;97138.88;5050726;28;20020;-83
2023/04/14 01:23:05;;;;;;;;;;;;;;;25.55;29.06;97139.34;5032840;28;20391;-83
2023/04/14 01:25:31;;;;;;;;;;;;;;;25.82;28.38;97140.13;5066292;28;20371;-82
2023/04/14 01:28:16;;;;;;;;;;;;;;;26.23;28.09;97144.38;5051566;28;19920;-82
2023/04/14 01:30:47;;;;;;;;;;;;;;;26.63;27.09;97146.91;5050562;28;19924;-82
2023/04/14 01:33:17;;;;;;;;;;;;;;;26.83;26.99;97146.44;5050030;28;20024;-83
2023/04/14 01:35:50;;;;;;;;;;;;;;;26.56;26.63;97147.25;5041809;28;19919;-83
2023/04/14 01:38:24;;;;;;;;;;;;;;;25.88;27.76;97140.31;5053182;28;19956;-83
2023/04/14 01:40:51;;;;;;;;;;;;;;;25.48;28.10;97136.84;5049998;28;19921;-83
2023/04/14 01:43:21;;;;;;;;;;;;;;;24.75;29.31;97139.34;5031510;28;19925;-83
2023/04/14 01:45:50;;;;;;;;;;;;;;;24.74;29.27;97130.16;5050747;28;19960;-83
2023/04/14 01:48:16;;;;;;;;;;;;;;;24.84;29.58;97125.38;5047607;28;19920;-83
2023/04/14 01:50:42;;;;;;;;;;;;;;;25.17;29.22;97118.00;5047960;28;19921;-83
2023/04/14 01:53:10;;;;;;;;;;;;;;;25.78;28.31;97122.66;5050701;28;19944;-83
2023/04/14 01:55:37;;;;;;;;;;;;;;;26.17;27.71;97122.94;5046017;28;20317;-83
2023/04/14 01:58:05;;;;;;;;;;;;;;;26.44;27.37;97122.91;5053165;28;19921;-84
2023/04/14 02:00:34;;;;;;;;;;;;;;;26.62;27.39;97125.66;5045095;28;19928;-83
2023/04/14 02:03:01;;;;;;;;;;;;;;;26.25;26.91;97115.75;5049203;28;19984;-83
2023/04/14 02:05:28;;;;;;;;;;;;;;;25.75;27.90;97106.69;5047295;28;19949;-83
2023/04/14 02:07:54;;;;;;;;;;;;;;;24.91;29.37;97108.25;5034579;28;20372;-83
2023/04/14 02:10:21;;;;;;;;;;;;;;;24.91;29.35;97104.66;5051250;28;20024;-83
2023/04/14 02:12:49;;;;;;;;;;;;;;;25.37;28.90;97104.31;5047354;28;19921;-83
2023/04/14 02:15:17;;;;;;;;;;;;;;;25.88;27.78;97101.69;5049035;28;19932;-83
2023/04/14 02:17:45;;;;;;;;;;;;;;;25.66;27.86;97098.28;5052042;28;19921;-83
2023/04/14 02:20:12;;;;;;;;;;;;;;;25.64;28.05;97103.59;5050236;28;20303;-83
2023/04/14 02:22:38;;;;;;;;;;;;;;;25.86;27.80;97103.41;5047064;28;19921;-82
2023/04/14 02:25:05;;;;;;;;;;;;;;;25.95;27.97;97103.44;5050607;28;20422;-83
2023/04/14 02:27:34;;;;;;;;;;;;;;;25.96;27.27;97102.16;5047276;28;19974;-83
2023/04/14 02:30:03;;;;;;;;;;;;;;;25.91;27.50;97099.97;5048313;28;20024;-83
2023/04/14 02:32:30;;;;;;;;;;;;;;;25.79;26.97;97090.44;5049863;28;22078;-83
2023/04/14 02:35:00;;;;;;;;;;;;;;;24.90;28.38;97080.66;5048866;28;19928;-83
2023/04/14 02:37:30;;;;;;;;;;;;;;;24.74;28.80;97079.63;5047047;28;19927;-83
2023/04/14 02:40:01;;;;;;;;;;;;;;;25.05;28.49;97084.41;5054652;28;19930;-83
2023/04/14 02:42:29;;;;;;;;;;;;;;;25.30;28.04;97081.34;5051918;28;19920;-83
2023/04/14 02:45:02;;;;;;;;;;;;;;;25.33;27.97;97071.97;5054467;28;20383;-82
2023/04/14 02:47:30;;;;;;;;;;;;;;;25.29;27.83;97076.97;5051893;28;19974;-82
2023/04/14 02:49:57;;;;;;;;;;;;;;;25.29;28.12;97077.75;5054393;28;19917;-83
2023/04/14 02:52:25;;;;;;;;;;;;;;;25.57;27.07;97072.19;5053493;28;19921;-83
2023/04/14 02:54:52;;;;;;;;;;;;;;;25.75;26.84;97077.81;5054733;28;20379;-82
2023/04/14 02:57:19;;;;;;;;;;;;;;;25.77;26.71;97078.09;5051008;28;19928;-82
2023/04/14 02:59:46;;;;;;;;;;;;;;;25.66;26.43;97072.97;5054950;28;20414;-83
2023/04/14 03:02:12;;;;;;;;;;;;;;;25.20;27.09;97062.91;5052266;28;19955;-83
2023/04/14 03:04:40;;;;;;;;;;;;;;;24.72;27.43;97054.03;5053008;28;19927;-82
2023/04/14 03:07:07;;;;;;;;;;;;;;;24.68;28.05;97059.03;5050159;28;20056;-83
2023/04/14 03:09:33;;;;;;;;;;;;;;;24.96;28.17;97057.09;5053186;28;19921;-83
2023/04/14 03:12:01;;;;;;;;;;;;;;;25.03;27.83;97064.44;5054045;28;19931;-82
2023/04/14 03:14:28;;;;;;;;;;;;;;;25.08;28.00;97064.63;5052888;28;19931;-83
2023/04/14 03:16:54;;;;;;;;;;;;;;;24.97;28.14;97053.03;5052962;28;20032;-82
2023/04/14 03:19:22;;;;;;;;;;;;;;;24.81;28.59;97056.09;5037014;28;19928;-83
2023/04/14 03:21:51;;;;;;;;;;;;;;;24.65;28.90;97050.72;5053627;28;20406;-83
2023/04/14 03:24:23;;;;;;;;;;;;;;;24.67;28.71;97054.63;5049849;28;20050;-83
2023/04/14 03:26:56;;;;;;;;;;;;;;;24.23;29.72;97056.00;5053007;28;20410;-83
2023/04/14 03:29:26;;;;;;;;;;;;;;;24.54;29.51;97053.19;5043282;28;19925;-83
2023/04/14 03:31:56;;;;;;;;;;;;;;;24.61;29.37;97050.88;5052609;28;19921;-83
2023/04/14 03:34:26;;;;;;;;;;;;;;;24.78;29.32;97056.28;5052303;28;20003;-83
2023/04/14 03:36:54;;;;;;;;;;;;;;;25.13;28.57;97041.53;5053018;28;19920;-83
2023/04/14 03:39:23;;;;;;;;;;;;;;;25.14;28.73;97045.91;5048837;28;20076;-82
2023/04/14 03:41:50;;;;;;;;;;;;;;;25.29;28.62;97046.06;5020528;28;19921;-83
2023/04/14 03:44:17;;;;;;;;;;;;;;;25.32;28.52;97051.53;5051697;28;19920;-82
2023/04/14 03:46:43;;;;;;;;;;;;;;;25.34;28.60;97046.22;5054113;28;20362;-82
2023/04/14 03:49:10;;;;;;;;;;;;;;;25.10;28.91;97045.28;5053265;28;19917;-82
2023/04/14 03:51:40;;;;;;;;;;;;;;;25.05;28.82;97045.88;5050730;28;19967;-82
2023/04/14 03:54:08;;;;;;;;;;;;;;;24.89;28.91;97039.75;5048845;28;19924;-82
2023/04/14 03:56:37;;;;;;;;;;;;;;;23.86;30.62;97040.19;5053279;28;19925;-82
2023/04/14 03:59:04;;;;;;;;;;;;;;;23.49;31.32;97041.94;5047815;28;20299;-83
2023/04/14 04:01:31;;;;;;;;;;;;;;;22.53;33.23;97035.97;5048760;28;20012;-83
2023/04/14 04:03:59;;;;;;;;;;;;;;;21.68;34.69;97042.56;5047546;28;19929;-82
2023/04/14 04:06:26;;;;;;;;;;;;;;;22.13;34.18;97037.63;5052275;28;19995;-83
2023/04/14 04:08:54;;;;;;;;;;;;;;;22.08;34.25;97034.63;5052829;28;19920;-83
2023/04/14 04:11:21;;;;;;;;;;;;;;;22.41;33.91;97033.16;5052892;28;19956;-83
2023/04/14 04:13:48;;;;;;;;;;;;;;;22.00;34.95;97043.22;5052427;28;19916;-83
2023/04/14 04:16:15;;;;;;;;;;;;;;;22.32;34.18;97050.63;5053129;28;19971;-82
2023/04/14 04:18:45;;;;;;;;;;;;;;;23.69;31.51;97056.41;5048529;28;19921;-83
2023/04/14 04:21:13;;;;;;;;;;;;;;;23.30;32.68;97052.19;5049026;28;20318;-83
2023/04/14 04:23:40;;;;;;;;;;;;;;;23.63;31.81;97052.66;5046837;28;19932;-83
2023/04/14 04:26:07;;;;;;;;;;;;;;;23.51;32.24;97050.69;5049123;28;19924;-83
2023/04/14 04:28:33;;;;;;;;;;;;;;;24.02;31.60;97059.59;5043722;28;19955;-83
2023/04/14 04:30:59;;;;;;;;;;;;;;;24.47;31.09;97061.88;5040905;28;20007;-83
2023/04/14 04:33:28;;;;;;;;;;;;;;;24.96;30.28;97045.88;5043972;28;20339;-83
2023/04/14 04:35:55;;;;;;;;;;;;;;;25.20;29.76;97044.03;5038738;28;19932;-84
2023/04/14 04:38:21;;;;;;;;;;;;;;;24.87;30.01;97043.03;5045297;28;19920;-83
2023/04/14 04:40:47;;;;;;;;;;;;;;;24.30;30.91;97038.91;5041741;28;19925;-83
2023/04/14 04:43:15;;;;;;;;;;;;;;;24.52;30.63;97039.63;5042346;28;19933;-83
2023/04/14 04:45:47;;;;;;;;;;;;;;;24.52;30.75;97044.47;5046493;28;19932;-83
2023/04/14 04:48:13;;;;;;;;;;;;;;;24.09;31.59;97038.94;5046005;28;20394;-84
2023/04/14 04:50:40;;;;;;;;;;;;;;;23.42;32.39;97041.41;5040587;28;19979;-84
2023/04/14 04:53:06;;;;;;;;;;;;;;;23.24;33.92;97037.19;5037517;28;19944;-83
2023/04/14 04:55:32;;;;;;;;;;;;;;;22.00;36.16;97040.44;5045165;28;19921;-84
2023/04/14 04:57:58;;;;;;;;;;;;;;;22.21;34.70;97038.22;5046178;28;19974;-83
2023/04/14 05:00:25;;;;;;;;;;;;;;;22.80;33.58;97032.72;5046686;28;19933;-82
2023/04/14 05:02:51;;;;;;;;;;;;;;;21.95;35.22;97037.41;5040439;28;19928;-84
2023/04/14 05:05:17;;;;;;;;;;;;;;;21.45;37.08;97026.09;5048729;28;20012;-84
2023/04/14 05:07:43;;;;;;;;;;;;;;;21.27;38.24;97029.34;5032360;28;19927;-85
2023/04/14 05:10:09;;;;;;;;;;;;;;;21.47;36.75;97021.59;5051080;28;19928;-84
2023/04/14 05:12:35;;;;;;;;;;;;;;;21.35;38.44;97025.91;5049038;28;20335;-84
2023/04/14 05:15:02;;;;;;;;;;;;;;;20.76;38.93;97019.13;5053070;28;19917;-84
2023/04/14 05:17:28;;;;;;;;;;;;;;;20.59;38.54;97012.75;5050990;28;19967;-85
2023/04/14 05:19:54;;;;;;;;;;;;;;;19.99;42.59;97006.59;5053371;28;19929;-84
2023/04/14 05:22:20;;;;;;;;;;;;;;;21.02;39.38;97002.09;5051166;28;19924;-85
2023/04/14 05:24:49;;;;;;;;;;;;;;;20.25;40.80;96992.91;5054349;28;19956;-84
2023/04/14 05:27:15;;;;;;;;;;;;;;;20.35;40.38;96986.28;5049953;28;19921;-84
2023/04/14 05:29:41;;;;;;;;;;;;;;;20.18;42.22;96979.91;5049850;28;20457;-85
2023/04/14 05:32:09;;;;;;;;;;;;;;;20.26;42.14;96969.38;5047254;28;20011;-84
2023/04/14 05:34:35;;;;;;;;;;;;;;;19.88;43.06;96969.81;5052117;28;19924;-85
2023/04/14 05:37:01;;;;;;;;;;;;;;;20.04;41.81;96962.72;5055372;28;19921;-84
2023/04/14 05:39:27;;;;;;;;;;;;;;;20.41;40.39;96951.88;5052969;28;20011;-84
2023/04/14 05:41:53;;;;;;;;;;;;;;;20.80;39.58;96961.22;5055491;28;19983;-84
2023/04/14 05:44:21;;;;;;;;;;;;;;;21.71;37.59;96960.66;5044438;28;19925;-84
2023/04/14 05:46:47;;;;;;;;;;;;;;;20.17;41.52;96958.81;5049407;28;19916;-84
2023/04/14 05:49:13;;;;;;;;;;;;;;;19.88;42.03;96961.47;5056311;28;20023;-84
2023/04/14 05:51:39;;;;;;;;;;;;;;;20.66;41.47;96960.38;5056214;28;19921;-83
2023/04/14 05:54:05;;;;;;;;;;;;;;;21.72;37.59;96953.84;5055339;28;20311;-84
2023/04/14 05:56:31;;;;;;;;;;;;;;;20.78;39.78;96958.09;5056234;28;19917;-84
2023/04/14 05:58:57;;;;;;;;;;;;;;;20.75;38.25;96956.97;5055639;28;19928;-85
2023/04/14 06:01:23;;;;;;;;;;;;;;;20.04;44.03;96959.94;5055768;28;20375;-84
2023/04/14 06:03:49;;;;;;;;;;;;;;;20.96;38.47;96958.41;5053172;28;19922;-84
2023/04/14 06:06:16;;;;;;;;;;;;;;;22.26;35.87;96960.16;5055988;28;19924;-84
2023/04/14 06:08:42;;;;;;;;;;;;;;;22.56;38.39;96956.75;5064526;28;19976;-84
2023/04/14 06:11:08;;;;;;;;;;;;;;;24.05;33.05;96958.53;5055841;28;19912;-84
2023/04/14 06:13:34;;;;;;;;;;;;;;;23.71;33.56;96953.03;5055784;28;20269;-85
2023/04/14 06:16:00;;;;;;;;;;;;;;;24.22;32.88;96966.72;5055668;28;19928;-84
2023/04/14 06:18:26;;;;;;;;;;;;;;;24.56;32.94;96963.69;5055949;28;19916;-84
2023/04/14 06:20:52;;;;;;;;;;;;;;;25.14;31.34;96963.66;5037911;28;19978;-84
2023/04/14 06:23:20;;;;;;;;;;;;;;;25.63;31.47;96960.66;5044927;28;19924;-84
2023/04/14 06:25:46;;;;;;;;;;;;;;;25.39;30.85;96964.09;5035671;28;19917;-85
2023/04/14 06:28:13;;;;;;;;;;;;;;;25.45;30.74;96960.69;5045281;28;19924;-85
2023/04/14 06:30:39;;;;;;;;;;;;;;;24.66;31.30;96954.84;5070895;28;20019;-85
2023/04/14 06:33:06;;;;;;;;;;;;;;;25.40;31.14;96951.63;5075592;28;19917;-85
2023/04/14 06:35:33;;;;;;;;;;;;;;;22.32;38.40;96944.38;5068741;28;19916;-85
2023/04/14 06:38:00;;;;;;;;;;;;;;;21.08;41.54;96944.53;5053258;28;19950;-85
2023/04/14 06:40:26;;;;;;;;;;;;;;;22.09;35.39;96936.34;5058775;28;19926;-85
2023/04/14 06:42:52;;;;;;;;;;;;;;;20.99;40.83;96927.63;5055356;28;19917;-85
2023/04/14 06:45:18;;;;;;;;;;;;;;;20.86;41.16;96917.63;5055396;28;20402;-86
2023/04/14 06:47:44;;;;;;;;;;;;;;;20.64;40.06;96928.56;5055392;28;20007;-86
2023/04/14 06:50:11;;;;;;;;;;;;;;;21.28;39.70;96922.81;5055231;28;20371;-85
2023/04/14 06:52:37;;;;;;;;;;;;;;;21.90;38.35;96912.19;5055435;28;19924;-85
2023/04/14 06:55:03;;;;;;;;;;;;;;;21.16;41.60;96908.84;5054349;28;20287;-85
2023/04/14 06:57:29;;;;;;;;;;;;;;;21.13;41.23;96912.50;5054733;28;19925;-85
2023/04/14 06:59:55;;;;;;;;;;;;;;;22.24;38.69;96912.28;5054264;28;20403;-85
2023/04/14 07:02:21;;;;;;;;;;;;;;;23.00;35.30;96910.06;5054299;28;20011;-84
2023/04/14 07:04:47;;;;;;;;;;;;;;;23.12;34.14;96926.03;5053740;28;19998;-85
2023/04/14 07:07:13;;;;;;;;;;;;;;;25.23;30.82;96919.47;5058403;28;20302;-85
2023/04/14 07:09:42;;;;;;;;;;;;;;;24.91;33.79;96924.94;5075057;28;19917;-85
2023/04/14 07:12:12;;;;;;;;;;;;;;;22.14;39.34;96926.59;5050765;28;19918;-85
2023/04/14 07:14:39;;;;;;;;;;;;;;;22.62;36.22;96940.19;5046234;28;19921;-85
2023/04/14 07:17:05;;;;;;;;;;;;;;;23.61;37.50;96931.81;5050214;28;19921;-85
2023/04/14 07:19:31;;;;;;;;;;;;;;;24.12;34.62;96921.03;5021755;28;20419;-85
2023/04/14 07:21:57;;;;;;;;;;;;;;;25.61;29.86;96921.00;5054240;28;20015;-85
2023/04/14 07:24:23;;;;;;;;;;;;;;;24.95;31.53;96931.22;5054687;28;19956;-85
2023/04/14 07:26:49;;;;;;;;;;;;;;;23.61;38.04;96915.00;5054295;28;19924;-85
2023/04/14 07:29:15;;;;;;;;;;;;;;;23.62;33.21;96902.53;5052293;28;19932;-85
2023/04/14 07:31:41;;;;;;;;;;;;;;;21.96;42.01;96905.59;5051162;28;19921;-85
2023/04/14 07:34:07;;;;;;;;;;;;;;;21.38;42.22;96904.19;5045108;28;19929;-85
2023/04/14 07:36:33;;;;;;;;;;;;;;;21.83;41.94;96898.41;5042786;28;19921;-86
2023/04/14 07:39:00;;;;;;;;;;;;;;;21.34;43.37;96909.09;5034983;28;19921;-85
2023/04/14 07:41:26;;;;;;;;;;;;;;;21.31;42.74;96905.19;5036768;28;19921;-86
2023/04/14 07:43:57;;;;;;;;;;;;;;;22.54;39.46;96911.63;5034838;28;20273;-86
2023/04/14 07:46:23;;;;;;;;;;;;;;;21.58;43.47;96906.78;5036245;28;20016;-85
2023/04/14 07:48:50;;;;;;;;;;;;;;;23.20;35.09;96896.50;5039459;28;19928;-85
2023/04/14 07:51:16;;;;;;;;;;;;;;;23.36;40.15;96895.56;5046923;28;20027;-86
2023/04/14 07:53:42;;;;;;;;;;;;;;;22.34;39.21;96894.34;5048634;28;19925;-86
2023/04/14 07:56:08;;;;;;;;;;;;;;;21.47;38.92;96893.13;5044287;28;19927;-87
2023/04/14 07:58:34;;;;;;;;;;;;;;;23.18;35.85;96890.59;5050883;28;19933;-87
2023/04/14 08:01:01;;;;;;;;;;;;;;;24.07;34.82;96884.38;5032532;28;19928;-87
2023/04/14 08:03:27;;;;;;;;;;;;;;;25.32;30.22;96893.41;5050637;28;20071;-85
2023/04/14 08:05:53;;;;;;;;;;;;;;;25.27;33.63;96892.03;5032043;28;20431;-86
2023/04/14 08:08:19;;;;;;;;;;;;;;;24.28;35.71;96894.72;5045751;28;19927;-86
2023/04/14 08:10:45;;;;;;;;;;;;;;;23.29;35.81;96887.41;5031960;28;19925;-87
2023/04/14 08:13:11;;;;;;;;;;;;;;;23.11;35.44;96878.88;5048153;28;19921;-86
2023/04/14 08:15:37;;;;;;;;;;;;;;;24.40;32.15;96872.16;5039289;28;19921;-86
2023/04/14 08:18:03;;;;;;;;;;;;;;;24.44;35.48;96869.97;5039000;28;21680;-86
2023/04/14 08:20:29;;;;;;;;;;;;;;;24.82;32.12;96877.22;5043979;28;19951;-86
2023/04/14 08:22:55;;;;;;;;;;;;;;;25.92;28.40;96871.72;5045095;28;20451;-86
2023/04/14 08:25:21;;;;;;;;;;;;;;;24.38;35.06;96873.88;5040009;28;20352;-87
2023/04/14 08:27:47;;;;;;;;;;;;;;;23.61;32.15;96867.38;5039518;28;20023;-86
2023/04/14 08:30:13;;;;;;;;;;;;;;;24.48;32.16;96872.66;5032146;28;20011;-87
2023/04/14 08:32:39;;;;;;;;;;;;;;;23.63;37.00;96873.31;5043094;28;19924;-86
2023/04/14 08:35:05;;;;;;;;;;;;;;;23.80;34.49;96865.44;5036888;28;19917;-85
2023/04/14 08:37:32;;;;;;;;;;;;;;;23.53;31.80;96862.50;5031235;28;20347;-86
2023/04/14 08:39:58;;;;;;;;;;;;;;;22.99;38.60;96863.69;5033327;28;19917;-86
2023/04/14 08:42:24;;;;;;;;;;;;;;;23.65;31.59;96862.41;5034902;28;19936;-86
2023/04/14 08:44:51;;;;;;;;;;;;;;;24.83;33.37;96868.34;5035658;28;20012;-86
2023/04/14 08:47:18;;;;;;;;;;;;;;;23.52;37.49;96863.75;5035240;28;20392;-86
2023/04/14 08:49:45;;;;;;;;;;;;;;;25.23;28.32;96863.28;5044313;28;19920;-86
2023/04/14 08:52:11;;;;;;;;;;;;;;;24.26;32.42;96864.34;5041200;28;19928;-86
2023/04/14 08:54:38;;;;;;;;;;;;;;;23.54;30.60;96859.25;5035632;28;19924;-87
2023/04/14 08:57:07;;;;;;;;;;;;;;;24.28;30.39;96858.25;5045894;28;20521;-86
2023/04/14 08:59:33;;;;;;;;;;;;;;;24.93;30.54;96864.25;5056061;28;20350;-86
2023/04/14 09:01:59;;;;;;;;;;;;;;;24.92;33.69;96862.72;5049023;28;19917;-86
2023/04/14 09:04:27;;;;;;;;;;;;;;;24.75;29.59;96858.63;5038365;28;20300;-86
2023/04/14 09:06:53;;;;;;;;;;;;;;;24.21;30.06;96852.94;5041871;28;19925;-86
2023/04/14 09:09:20;;;;;;;;;;;;;;;24.62;36.53;96858.78;5039703;28;19927;-86
2023/04/14 09:11:47;;;;;;;;;;;;;;;23.66;35.25;96860.38;5043718;28;19921;-87
2023/04/14 09:14:13;;;;;;;;;;;;;;;24.92;30.04;96859.13;5021998;28;19921;-86
2023/04/14 09:16:39;;;;;;;;;;;;;;;24.04;36.99;96861.59;5036464;28;19917;-86
2023/04/14 09:19:05;;;;;;;;;;;;;;;24.40;33.81;96858.16;5028994;28;19923;-87
2023/04/14 09:21:32;;;;;;;;;;;;;;;24.39;36.47;96861.38;5050766;28;19927;-87
2023/04/14 09:23:58;;;;;;;;;;;;;;;25.17;29.68;96853.94;5050218;28;19920;-86
2023/04/14 09:26:25;;;;;;;;;;;;;;;24.71;33.75;96853.16;5042579;28;19921;-86
2023/04/14 09:28:51;;;;;;;;;;;;;;;24.15;35.74;96852.81;5056068;28;19947;-87
2023/04/14 09:31:18;;;;;;;;;;;;;;;23.47;36.18;96851.13;5055838;28;20000;-86
2023/04/14 09:33:47;;;;;;;;;;;;;;;24.57;30.88;96855.81;5055586;28;19931;-86
2023/04/14 09:36:17;;;;;;;;;;;;;;;24.67;34.51;96857.38;5051571;28;19974;-85
2023/04/14 09:38:43;;;;;;;;;;;;;;;24.38;29.47;96852.22;5052305;28;19928;-86
2023/04/14 09:41:14;;;;;;;;;;;;;;;24.73;35.71;96847.09;5052268;28;19921;-86
2023/04/14 09:43:41;;;;;;;;;;;;;;;24.81;26.53;96839.94;5054406;28;20407;-87
2023/04/14 09:46:08;;;;;;;;;;;;;;;24.68;36.19;96842.09;5054007;28;19920;-86
2023/04/14 09:48:36;;;;;;;;;;;;;;;25.61;28.55;96845.09;5038674;28;19919;-86
2023/04/14 09:51:08;;;;;;;;;;;;;;;25.05;35.68;96829.63;5050341;28;20341;-87
2023/04/14 09:53:35;;;;;;;;;;;;;;;26.33;31.15;96829.91;5048169;28;19931;-86
2023/04/14 09:56:06;;;;;;;;;;;;;;;25.08;34.44;96828.69;5046450;28;19920;-86
2023/04/14 09:58:33;;;;;;;;;;;;;;;24.52;31.37;96817.94;5052137;28;19929;-85
2023/04/14 10:01:01;;;;;;;;;;;;;;;24.41;33.60;96809.19;5041021;28;20372;-86
2023/04/14 10:03:31;;;;;;;;;;;;;;;25.08;34.38;96816.66;5047073;28;19921;-86
2023/04/14 10:05:57;;;;;;;;;;;;;;;25.29;35.01;96810.06;5049731;28;19925;-86
2023/04/14 10:08:32;;;;;;;;;;;;;;;25.01;35.46;96806.53;5052222;28;20450;-86
2023/04/14 10:11:14;;;;;;;;;;;;;;;25.57;34.62;96805.94;5052217;28;19956;-86
2023/04/14 10:13:41;;;;;;;;;;;;;;;25.34;33.82;96801.75;5051653;28;20289;-86
2023/04/14 10:16:07;;;;;;;;;;;;;;;25.04;28.70;96796.41;5049147;28;19921;-85
2023/04/14 10:18:34;;;;;;;;;;;;;;;26.66;31.42;96806.06;5048439;28;20019;-87
2023/04/14 10:21:00;;;;;;;;;;;;;;;26.58;32.17;96804.09;5040699;28;19921;-85
2023/04/14 10:23:26;;;;;;;;;;;;;;;27.89;25.64;96780.81;5054353;28;19947;-85
2023/04/14 10:25:54;;;;;;;;;;;;;;;28.40;25.87;96783.06;5052965;28;19921;-85
2023/04/14 10:28:22;;;;;;;;;;;;;;;27.80;25.76;96778.09;5044756;28;19921;-85
2023/04/14 10:30:49;;;;;;;;;;;;;;;28.40;25.11;96777.41;5075290;28;19920;-87
2023/04/14 10:33:15;;;;;;;;;;;;;;;27.09;27.46;96779.25;5068639;28;20363;-85
2023/04/14 10:35:44;;;;;;;;;;;;;;;26.96;25.18;96775.13;5050190;28;20388;-87
2023/04/14 10:38:10;;;;;;;;;;;;;;;26.53;30.62;96773.78;5035861;28;20319;-85
2023/04/14 10:40:45;;;;;;;;;;;;;;;25.26;34.16;96775.25;5043022;28;19963;-85
2023/04/14 10:43:15;;;;;;;;;;;;;;;24.90;33.93;96786.56;5050885;28;20422;-84
2023/04/14 10:45:53;;;;;;;;;;;;;;;24.81;29.10;96769.75;5050965;28;19921;-87
2023/04/14 10:48:21;;;;;;;;;;;;;;;25.01;28.57;96783.28;5056169;28;19921;-85
2023/04/14 10:50:47;;;;;;;;;;;;;;;23.99;35.20;96782.94;5054061;28;19929;-86
2023/04/14 10:53:13;;;;;;;;;;;;;;;24.16;31.18;96784.22;5052142;28;19936;-85
2023/04/14 10:55:45;;;;;;;;;;;;;;;24.63;31.26;96786.59;5054618;28;19921;-85
2023/04/14 10:58:19;;;;;;;;;;;;;;;25.57;27.44;96785.47;5053955;28;20403;-85
2023/04/14 11:00:45;;;;;;;;;;;;;;;25.83;35.82;96775.34;5053405;28;19931;-85
2023/04/14 11:03:15;;;;;;;;;;;;;;;25.48;36.38;96777.09;5049187;28;20445;-88
2023/04/14 11:05:41;;;;;;;;;;;;;;;25.41;29.97;96778.19;5049943;28;19924;-86
2023/04/14 11:08:15;;;;;;;;;;;;;;;24.84;37.13;96784.88;5028909;28;19971;-86
2023/04/14 11:10:46;;;;;;;;;;;;;;;25.63;34.64;96778.72;5048831;28;19929;-85
2023/04/14 11:13:13;;;;;;;;;;;;;;;25.39;36.83;96780.69;5050973;28;19920;-86
2023/04/14 11:15:50;;;;;;;;;;;;;;;25.75;31.98;96768.50;5046019;28;19922;-84
2023/04/14 11:18:18;;;;;;;;;;;;;;;26.49;25.77;96761.94;5039575;28;19920;-85
2023/04/14 11:20:44;;;;;;;;;;;;;;;26.44;34.02;96769.00;5045898;28;20048;-86
2023/04/14 11:23:15;;;;;;;;;;;;;;;26.50;25.50;96746.59;5034481;28;19928;-84
2023/04/14 11:25:41;;;;;;;;;;;;;;;26.67;27.75;96747.72;5032466;28;20287;-85
2023/04/14 11:28:07;;;;;;;;;;;;;;;26.47;32.97;96753.97;5044127;28;19928;-88
2023/04/14 11:30:33;;;;;;;;;;;;;;;25.02;28.93;96751.91;5033381;28;19974;-86
2023/04/14 11:33:00;;;;;;;;;;;;;;;25.41;35.87;96748.03;5053848;28;19997;-87
2023/04/14 11:35:27;;;;;;;;;;;;;;;25.21;29.61;96747.81;5036894;28;19998;-87
2023/04/14 11:37:56;;;;;;;;;;;;;;;24.72;34.96;96738.84;5052938;28;20130;-87
2023/04/14 11:40:24;;;;;;;;;;;;;;;24.31;35.62;96739.53;5051813;28;19947;-86
2023/04/14 11:42:51;;;;;;;;;;;;;;;24.41;34.92;96736.25;5053197;28;19983;-87
2023/04/14 11:45:17;;;;;;;;;;;;;;;24.34;35.54;96744.97;5030233;28;20019;-87
2023/04/14 11:48:00;;;;;;;;;;;;;;;23.69;37.22;96734.13;5044793;28;19964;-87
2023/04/14 11:50:30;;;;;;;;;;;;;;;25.57;28.58;96744.09;5052120;28;19921;-87
2023/04/14 11:52:58;;;;;;;;;;;;;;;26.58;26.40;96742.91;5052110;28;19949;-87
2023/04/14 11:55:25;;;;;;;;;;;;;;;24.84;35.13;96751.19;5046223;28;19956;-87
2023/04/14 11:57:52;;;;;;;;;;;;;;;25.89;26.09;96740.47;5053414;28;19994;-87
2023/04/14 12:00:18;;;;;;;;;;;;;;;27.15;24.81;96737.84;5034560;28;20283;-86
2023/04/14 12:02:44;;;;;;;;;;;;;;;27.25;27.87;96742.09;5052666;28;20344;-87
2023/04/14 12:05:12;;;;;;;;;;;;;;;28.12;25.02;96740.38;5057005;28;19924;-87
2023/04/14 12:07:41;;;;;;;;;;;;;;;27.81;25.56;96723.22;5057109;28;19967;-87
2023/04/14 12:10:07;;;;;;;;;;;;;;;27.14;30.36;96725.00;5035927;28;20351;-87
2023/04/14 12:12:33;;;;;;;;;;;;;;;26.18;32.70;96724.97;5061331;28;19917;-87
2023/04/14 12:15:00;;;;;;;;;;;;;;;26.45;26.44;96724.75;5050420;28;19921;-86
2023/04/14 12:17:26;;;;;;;;;;;;;;;26.12;25.24;96713.59;5042872;28;20435;-88
2023/04/14 12:19:52;;;;;;;;;;;;;;;24.82;33.05;96706.75;5065870;28;19960;-87
2023/04/14 12:22:22;;;;;;;;;;;;;;;24.62;34.09;96706.47;5052970;28;19964;-85
2023/04/14 12:24:48;;;;;;;;;;;;;;;24.54;32.98;96714.41;5061483;28;19916;-87
2023/04/14 12:27:17;;;;;;;;;;;;;;;24.09;33.74;96703.22;5052769;28;19921;-86
2023/04/14 12:29:43;;;;;;;;;;;;;;;24.91;26.75;96701.09;5066780;28;19924;-87
2023/04/14 12:32:09;;;;;;;;;;;;;;;25.31;34.19;96695.94;5053739;28;20276;-88
2023/04/14 12:34:35;;;;;;;;;;;;;;;25.48;32.43;96696.38;5049483;28;20367;-87
2023/04/14 12:37:09;;;;;;;;;;;;;;;25.06;33.09;96692.78;5047832;28;19967;-87
2023/04/14 12:39:51;;;;;;;;;;;;;;;24.72;32.19;96691.91;5053035;28;19921;-87
2023/04/14 12:42:17;;;;;;;;;;;;;;;24.82;34.01;96691.91;5053120;28;19928;-87
2023/04/14 12:44:56;;;;;;;;;;;;;;;26.14;27.32;96685.78;5036631;28;19936;-87
2023/04/14 12:47:29;;;;;;;;;;;;;;;26.21;31.66;96679.78;5040948;28;20288;-88
2023/04/14 12:49:57;;;;;;;;;;;;;;;26.50;32.32;96671.38;5052157;28;19932;-87